sensor_id;sensor_type;location;lat;lon;timestamp;pressure;altitude;pressure_sealevel;temperature;humidity
68301;BME280;55146;47.468;18.806;2022-08-03T00:01:02;100104.38;;;20.88;63.86
68301;BME280;55146;47.468;18.806;2022-08-03T00:03:28;100106.09;;;20.81;64.23
68301;BME280;55146;47.468;18.806;2022-08-03T00:05:53;100105.09;;;20.85;64.32
68301;BME280;55146;47.468;18.806;2022-08-03T00:08:19;100102.91;;;20.70;64.24
68301;BME280;55146;47.468;18.806;2022-08-03T00:10:44;100097.25;;;20.79;64.18
68301;BME280;55146;47.468;18.806;2022-08-03T00:13:10;100099.28;;;20.70;64.33
68301;BME280;55146;47.468;18.806;2022-08-03T00:15:38;100095.13;;;20.76;64.34
68301;BME280;55146;47.468;18.806;2022-08-03T00:18:03;100098.13;;;20.71;64.24
68301;BME280;55146;47.468;18.806;2022-08-03T00:20:29;100101.69;;;20.59;64.62
68301;BME280;55146;47.468;18.806;2022-08-03T00:22:54;100101.19;;;20.57;64.51
68301;BME280;55146;47.468;18.806;2022-08-03T00:25:19;100098.63;;;20.52;64.53
68301;BME280;55146;47.468;18.806;2022-08-03T00:27:45;100102.25;;;20.73;64.47
68301;BME280;55146;47.468;18.806;2022-08-03T00:30:10;100102.25;;;20.73;64.15
68301;BME280;55146;47.468;18.806;2022-08-03T00:32:36;100104.97;;;20.61;64.09
68301;BME280;55146;47.468;18.806;2022-08-03T00:35:01;100107.28;;;20.59;64.16
68301;BME280;55146;47.468;18.806;2022-08-03T00:37:27;100103.06;;;20.53;64.27
68301;BME280;55146;47.468;18.806;2022-08-03T00:39:52;100100.53;;;20.39;64.33
68301;BME280;55146;47.468;18.806;2022-08-03T00:42:17;100105.81;;;20.32;64.64
68301;BME280;55146;47.468;18.806;2022-08-03T00:44:43;100099.91;;;20.34;65.02
68301;BME280;55146;47.468;18.806;2022-08-03T00:47:10;100108.63;;;20.32;64.52
68301;BME280;55146;47.468;18.806;2022-08-03T00:49:39;100102.81;;;20.37;64.54
68301;BME280;55146;47.468;18.806;2022-08-03T00:52:07;100104.09;;;20.48;63.63
68301;BME280;55146;47.468;18.806;2022-08-03T00:54:33;100104.97;;;20.40;63.50
68301;BME280;55146;47.468;18.806;2022-08-03T00:56:59;100102.88;;;20.29;63.90
68301;BME280;55146;47.468;18.806;2022-08-03T00:59:25;100106.81;;;20.28;64.27
68301;BME280;55146;47.468;18.806;2022-08-03T01:01:52;100103.91;;;20.24;64.42
68301;BME280;55146;47.468;18.806;2022-08-03T01:04:17;100099.66;;;20.18;64.50
68301;BME280;55146;47.468;18.806;2022-08-03T01:06:53;100099.22;;;20.07;64.94
68301;BME280;55146;47.468;18.806;2022-08-03T01:09:45;100111.03;;;19.75;64.74
68301;BME280;55146;47.468;18.806;2022-08-03T01:12:23;100105.72;;;19.91;65.79
68301;BME280;55146;47.468;18.806;2022-08-03T01:15:00;100109.56;;;20.07;66.33
68301;BME280;55146;47.468;18.806;2022-08-03T01:18:24;100111.69;;;20.10;65.64
68301;BME280;55146;47.468;18.806;2022-08-03T01:20:36;100113.47;;;19.85;65.83
68301;BME280;55146;47.468;18.806;2022-08-03T01:31:31;100117.53;;;19.96;65.56
68301;BME280;55146;47.468;18.806;2022-08-03T01:34:02;100112.75;;;19.97;65.62
68301;BME280;55146;47.468;18.806;2022-08-03T01:36:33;100113.16;;;19.78;65.63
68301;BME280;55146;47.468;18.806;2022-08-03T01:39:02;100119.41;;;19.75;65.82
68301;BME280;55146;47.468;18.806;2022-08-03T01:41:32;100113.81;;;19.84;66.27
68301;BME280;55146;47.468;18.806;2022-08-03T01:44:00;100111.50;;;19.86;65.93
68301;BME280;55146;47.468;18.806;2022-08-03T01:46:29;100113.66;;;19.80;66.12
68301;BME280;55146;47.468;18.806;2022-08-03T01:48:56;100123.19;;;19.79;66.07
68301;BME280;55146;47.468;18.806;2022-08-03T01:51:22;100117.28;;;19.81;66.53
68301;BME280;55146;47.468;18.806;2022-08-03T01:53:50;100109.56;;;19.77;66.84
68301;BME280;55146;47.468;18.806;2022-08-03T01:56:18;100110.50;;;19.82;66.22
68301;BME280;55146;47.468;18.806;2022-08-03T01:58:45;100107.09;;;19.76;65.71
68301;BME280;55146;47.468;18.806;2022-08-03T02:01:14;100116.19;;;19.64;66.23
68301;BME280;55146;47.468;18.806;2022-08-03T02:03:43;100114.66;;;19.75;66.20
68301;BME280;55146;47.468;18.806;2022-08-03T02:06:11;100117.00;;;19.65;66.11
68301;BME280;55146;47.468;18.806;2022-08-03T02:08:38;100117.63;;;19.70;66.71
68301;BME280;55146;47.468;18.806;2022-08-03T02:11:05;100117.69;;;19.62;66.63
68301;BME280;55146;47.468;18.806;2022-08-03T02:13:33;100128.03;;;19.61;66.91
68301;BME280;55146;47.468;18.806;2022-08-03T02:16:02;100118.66;;;19.66;66.94
68301;BME280;55146;47.468;18.806;2022-08-03T02:18:30;100113.25;;;19.61;66.64
68301;BME280;55146;47.468;18.806;2022-08-03T02:21:00;100113.44;;;19.56;66.80
68301;BME280;55146;47.468;18.806;2022-08-03T02:23:27;100115.41;;;19.55;66.94
68301;BME280;55146;47.468;18.806;2022-08-03T02:25:57;100108.81;;;19.60;67.05
68301;BME280;55146;47.468;18.806;2022-08-03T02:28:33;100115.72;;;19.54;66.92
68301;BME280;55146;47.468;18.806;2022-08-03T02:31:03;100112.78;;;19.42;66.89
68301;BME280;55146;47.468;18.806;2022-08-03T02:33:33;100116.41;;;19.42;66.99
68301;BME280;55146;47.468;18.806;2022-08-03T02:36:02;100112.09;;;19.45;67.06
68301;BME280;55146;47.468;18.806;2022-08-03T02:38:34;100114.59;;;19.46;67.11
68301;BME280;55146;47.468;18.806;2022-08-03T02:41:06;100109.13;;;19.58;67.12
68301;BME280;55146;47.468;18.806;2022-08-03T02:43:34;100114.78;;;19.50;66.90
68301;BME280;55146;47.468;18.806;2022-08-03T02:46:01;100108.31;;;19.58;66.81
68301;BME280;55146;47.468;18.806;2022-08-03T02:48:29;100105.53;;;19.58;66.83
68301;BME280;55146;47.468;18.806;2022-08-03T02:50:58;100117.88;;;19.48;66.88
68301;BME280;55146;47.468;18.806;2022-08-03T02:53:26;100118.50;;;19.45;66.83
68301;BME280;55146;47.468;18.806;2022-08-03T02:55:54;100116.06;;;19.52;66.83
68301;BME280;55146;47.468;18.806;2022-08-03T02:58:22;100110.47;;;19.61;66.77
68301;BME280;55146;47.468;18.806;2022-08-03T03:00:50;100120.69;;;19.48;66.47
68301;BME280;55146;47.468;18.806;2022-08-03T03:03:17;100121.66;;;19.35;66.63
68301;BME280;55146;47.468;18.806;2022-08-03T03:05:44;100124.78;;;19.33;67.06
68301;BME280;55146;47.468;18.806;2022-08-03T03:08:16;100119.88;;;19.30;67.38
68301;BME280;55146;47.468;18.806;2022-08-03T03:10:43;100115.94;;;19.23;67.30
68301;BME280;55146;47.468;18.806;2022-08-03T03:13:09;100116.41;;;19.33;67.47
68301;BME280;55146;47.468;18.806;2022-08-03T03:15:35;100120.06;;;19.25;67.58
68301;BME280;55146;47.468;18.806;2022-08-03T03:18:04;100119.88;;;19.30;68.03
68301;BME280;55146;47.468;18.806;2022-08-03T03:20:32;100119.03;;;19.38;67.72
68301;BME280;55146;47.468;18.806;2022-08-03T03:23:00;100126.06;;;19.45;67.59
68301;BME280;55146;47.468;18.806;2022-08-03T03:25:27;100130.00;;;19.52;67.41
68301;BME280;55146;47.468;18.806;2022-08-03T03:27:53;100123.62;;;19.34;67.44
68301;BME280;55146;47.468;18.806;2022-08-03T03:30:18;100126.59;;;19.29;67.49
68301;BME280;55146;47.468;18.806;2022-08-03T03:32:44;100127.44;;;19.30;67.30
68301;BME280;55146;47.468;18.806;2022-08-03T03:35:10;100124.13;;;19.36;67.32
68301;BME280;55146;47.468;18.806;2022-08-03T03:37:37;100119.25;;;19.25;67.49
68301;BME280;55146;47.468;18.806;2022-08-03T03:40:03;100128.44;;;19.25;67.63
68301;BME280;55146;47.468;18.806;2022-08-03T03:42:29;100123.34;;;19.19;68.03
68301;BME280;55146;47.468;18.806;2022-08-03T03:44:54;100122.19;;;19.20;67.88
68301;BME280;55146;47.468;18.806;2022-08-03T03:47:19;100123.50;;;19.14;67.81
68301;BME280;55146;47.468;18.806;2022-08-03T03:49:45;100128.28;;;19.13;68.34
68301;BME280;55146;47.468;18.806;2022-08-03T03:52:10;100127.78;;;19.03;68.21
68301;BME280;55146;47.468;18.806;2022-08-03T03:54:44;100124.81;;;19.08;68.66
68301;BME280;55146;47.468;18.806;2022-08-03T03:57:10;100132.41;;;18.98;68.89
68301;BME280;55146;47.468;18.806;2022-08-03T03:59:37;100129.94;;;19.06;68.89
68301;BME280;55146;47.468;18.806;2022-08-03T04:02:03;100131.91;;;19.05;68.62
68301;BME280;55146;47.468;18.806;2022-08-03T04:04:31;100130.75;;;19.06;68.78
68301;BME280;55146;47.468;18.806;2022-08-03T04:07:15;100139.28;;;19.10;69.27
68301;BME280;55146;47.468;18.806;2022-08-03T04:09:59;100144.38;;;18.99;69.25
68301;BME280;55146;47.468;18.806;2022-08-03T04:12:46;100145.53;;;19.07;69.56
68301;BME280;55146;47.468;18.806;2022-08-03T04:15:13;100137.47;;;19.05;69.73
68301;BME280;55146;47.468;18.806;2022-08-03T04:17:40;100148.47;;;19.19;69.67
68301;BME280;55146;47.468;18.806;2022-08-03T04:20:06;100144.19;;;19.13;69.60
68301;BME280;55146;47.468;18.806;2022-08-03T04:22:33;100150.44;;;19.10;69.72
68301;BME280;55146;47.468;18.806;2022-08-03T04:25:06;100154.19;;;19.14;69.53
68301;BME280;55146;47.468;18.806;2022-08-03T04:27:37;100161.91;;;19.17;69.65
68301;BME280;55146;47.468;18.806;2022-08-03T04:30:06;100161.09;;;19.16;69.59
68301;BME280;55146;47.468;18.806;2022-08-03T04:32:34;100163.53;;;19.18;69.39
68301;BME280;55146;47.468;18.806;2022-08-03T04:35:01;100161.09;;;19.25;69.63
68301;BME280;55146;47.468;18.806;2022-08-03T04:37:41;100163.19;;;19.28;69.39
68301;BME280;55146;47.468;18.806;2022-08-03T04:40:12;100169.91;;;19.27;69.23
68301;BME280;55146;47.468;18.806;2022-08-03T04:42:39;100168.94;;;19.31;69.39
68301;BME280;55146;47.468;18.806;2022-08-03T04:45:05;100161.88;;;19.34;69.05
68301;BME280;55146;47.468;18.806;2022-08-03T04:47:32;100172.53;;;19.40;69.37
68301;BME280;55146;47.468;18.806;2022-08-03T04:50:00;100172.72;;;19.35;69.32
68301;BME280;55146;47.468;18.806;2022-08-03T04:52:25;100175.19;;;19.37;69.57
68301;BME280;55146;47.468;18.806;2022-08-03T04:54:51;100177.09;;;19.45;69.59
68301;BME280;55146;47.468;18.806;2022-08-03T04:57:17;100182.72;;;19.54;69.68
68301;BME280;55146;47.468;18.806;2022-08-03T04:59:43;100188.94;;;19.51;69.32
68301;BME280;55146;47.468;18.806;2022-08-03T05:02:09;100190.59;;;19.52;69.11
68301;BME280;55146;47.468;18.806;2022-08-03T05:04:34;100191.22;;;19.57;69.15
68301;BME280;55146;47.468;18.806;2022-08-03T05:06:59;100196.34;;;19.55;69.14
68301;BME280;55146;47.468;18.806;2022-08-03T05:09:25;100197.97;;;19.56;69.38
68301;BME280;55146;47.468;18.806;2022-08-03T05:11:50;100200.47;;;19.49;69.22
68301;BME280;55146;47.468;18.806;2022-08-03T05:14:15;100205.19;;;19.57;68.99
68301;BME280;55146;47.468;18.806;2022-08-03T05:16:41;100204.22;;;19.53;68.72
68301;BME280;55146;47.468;18.806;2022-08-03T05:19:06;100203.22;;;19.58;68.97
68301;BME280;55146;47.468;18.806;2022-08-03T05:21:31;100208.78;;;19.66;68.80
68301;BME280;55146;47.468;18.806;2022-08-03T05:23:56;100202.38;;;19.74;68.72
68301;BME280;55146;47.468;18.806;2022-08-03T05:26:22;100212.19;;;19.81;68.81
68301;BME280;55146;47.468;18.806;2022-08-03T05:28:47;100220.19;;;19.99;68.09
68301;BME280;55146;47.468;18.806;2022-08-03T05:31:12;100215.88;;;20.10;66.89
68301;BME280;55146;47.468;18.806;2022-08-03T05:33:38;100217.44;;;20.29;66.59
68301;BME280;55146;47.468;18.806;2022-08-03T05:36:04;100214.31;;;20.30;66.17
68301;BME280;55146;47.468;18.806;2022-08-03T05:38:31;100211.94;;;20.11;66.50
68301;BME280;55146;47.468;18.806;2022-08-03T05:40:57;100213.37;;;20.17;66.41
68301;BME280;55146;47.468;18.806;2022-08-03T05:43:22;100215.81;;;20.19;66.40
68301;BME280;55146;47.468;18.806;2022-08-03T05:45:47;100218.81;;;20.14;66.23
68301;BME280;55146;47.468;18.806;2022-08-03T05:48:12;100223.03;;;20.20;66.58
68301;BME280;55146;47.468;18.806;2022-08-03T05:50:38;100215.28;;;20.34;66.55
68301;BME280;55146;47.468;18.806;2022-08-03T05:53:03;100216.87;;;20.44;66.14
68301;BME280;55146;47.468;18.806;2022-08-03T05:55:29;100222.03;;;20.63;65.82
68301;BME280;55146;47.468;18.806;2022-08-03T05:57:54;100219.84;;;20.68;65.93
68301;BME280;55146;47.468;18.806;2022-08-03T06:00:20;100225.59;;;20.72;65.92
68301;BME280;55146;47.468;18.806;2022-08-03T06:02:45;100224.09;;;20.74;66.27
68301;BME280;55146;47.468;18.806;2022-08-03T06:05:10;100231.19;;;20.92;65.73
68301;BME280;55146;47.468;18.806;2022-08-03T06:07:36;100230.94;;;21.06;65.65
68301;BME280;55146;47.468;18.806;2022-08-03T06:10:03;100226.78;;;21.12;66.12
68301;BME280;55146;47.468;18.806;2022-08-03T06:12:29;100218.25;;;21.29;66.38
68301;BME280;55146;47.468;18.806;2022-08-03T06:14:56;100223.16;;;21.53;65.17
68301;BME280;55146;47.468;18.806;2022-08-03T06:17:21;100226.13;;;21.81;64.67
68301;BME280;55146;47.468;18.806;2022-08-03T06:19:47;100228.94;;;22.14;64.89
68301;BME280;55146;47.468;18.806;2022-08-03T06:22:12;100220.06;;;22.48;63.30
68301;BME280;55146;47.468;18.806;2022-08-03T06:24:37;100225.91;;;22.80;63.83
68301;BME280;55146;47.468;18.806;2022-08-03T06:27:03;100229.66;;;23.24;63.35
68301;BME280;55146;47.468;18.806;2022-08-03T06:29:29;100228.25;;;23.58;63.66
68301;BME280;55146;47.468;18.806;2022-08-03T06:31:54;100227.16;;;23.90;59.85
68301;BME280;55146;47.468;18.806;2022-08-03T06:34:19;100225.94;;;24.19;57.90
68301;BME280;55146;47.468;18.806;2022-08-03T06:36:45;100233.00;;;24.44;56.95
68301;BME280;55146;47.468;18.806;2022-08-03T06:39:12;100228.59;;;24.78;58.81
68301;BME280;55146;47.468;18.806;2022-08-03T06:41:38;100237.31;;;24.89;56.58
68301;BME280;55146;47.468;18.806;2022-08-03T06:44:04;100232.19;;;25.29;56.00
68301;BME280;55146;47.468;18.806;2022-08-03T06:46:29;100231.06;;;25.53;55.54
68301;BME280;55146;47.468;18.806;2022-08-03T06:48:55;100231.44;;;25.90;56.01
68301;BME280;55146;47.468;18.806;2022-08-03T06:51:20;100231.28;;;26.25;56.28
68301;BME280;55146;47.468;18.806;2022-08-03T06:53:45;100229.19;;;26.45;53.28
68301;BME280;55146;47.468;18.806;2022-08-03T06:56:11;100228.00;;;26.46;52.94
68301;BME280;55146;47.468;18.806;2022-08-03T06:58:36;100227.03;;;26.87;55.02
68301;BME280;55146;47.468;18.806;2022-08-03T07:01:02;100228.34;;;27.20;52.37
68301;BME280;55146;47.468;18.806;2022-08-03T07:03:27;100222.22;;;27.48;54.07
68301;BME280;55146;47.468;18.806;2022-08-03T07:05:53;100219.22;;;27.63;52.36
68301;BME280;55146;47.468;18.806;2022-08-03T07:08:18;100223.47;;;27.84;49.15
68301;BME280;55146;47.468;18.806;2022-08-03T07:10:44;100221.94;;;27.90;48.25
68301;BME280;55146;47.468;18.806;2022-08-03T07:13:10;100219.78;;;28.16;47.96
68301;BME280;55146;47.468;18.806;2022-08-03T07:15:36;100221.94;;;28.30;48.92
68301;BME280;55146;47.468;18.806;2022-08-03T07:18:01;100221.88;;;28.23;48.26
68301;BME280;55146;47.468;18.806;2022-08-03T07:20:27;100218.88;;;28.53;47.43
68301;BME280;55146;47.468;18.806;2022-08-03T07:22:52;100223.37;;;28.58;47.48
68301;BME280;55146;47.468;18.806;2022-08-03T07:25:17;100219.09;;;28.78;46.17
68301;BME280;55146;47.468;18.806;2022-08-03T07:27:45;100225.00;;;29.17;48.54
68301;BME280;55146;47.468;18.806;2022-08-03T07:30:12;100226.34;;;29.37;45.85
68301;BME280;55146;47.468;18.806;2022-08-03T07:32:37;100220.72;;;29.48;46.10
68301;BME280;55146;47.468;18.806;2022-08-03T07:35:03;100223.53;;;29.41;46.41
68301;BME280;55146;47.468;18.806;2022-08-03T07:37:29;100212.28;;;29.76;43.51
68301;BME280;55146;47.468;18.806;2022-08-03T07:39:55;100216.34;;;29.82;42.24
68301;BME280;55146;47.468;18.806;2022-08-03T07:42:20;100218.06;;;30.01;41.52
68301;BME280;55146;47.468;18.806;2022-08-03T07:44:47;100211.47;;;29.72;40.39
68301;BME280;55146;47.468;18.806;2022-08-03T07:47:17;100220.06;;;30.00;42.33
68301;BME280;55146;47.468;18.806;2022-08-03T07:49:42;100217.22;;;30.00;40.43
68301;BME280;55146;47.468;18.806;2022-08-03T07:52:08;100212.00;;;30.24;40.42
68301;BME280;55146;47.468;18.806;2022-08-03T07:54:52;100215.66;;;30.63;40.46
68301;BME280;55146;47.468;18.806;2022-08-03T07:57:17;100218.09;;;30.79;41.21
68301;BME280;55146;47.468;18.806;2022-08-03T07:59:44;100212.78;;;30.95;40.95
68301;BME280;55146;47.468;18.806;2022-08-03T08:02:10;100217.63;;;31.16;41.69
68301;BME280;55146;47.468;18.806;2022-08-03T08:04:35;100204.25;;;31.06;38.48
68301;BME280;55146;47.468;18.806;2022-08-03T08:07:00;100205.44;;;31.15;39.00
68301;BME280;55146;47.468;18.806;2022-08-03T08:09:26;100206.13;;;31.48;41.45
68301;BME280;55146;47.468;18.806;2022-08-03T08:11:51;100207.78;;;31.38;37.26
68301;BME280;55146;47.468;18.806;2022-08-03T08:14:17;100203.78;;;31.18;36.70
68301;BME280;55146;47.468;18.806;2022-08-03T08:16:42;100206.63;;;31.28;38.13
68301;BME280;55146;47.468;18.806;2022-08-03T08:19:07;100203.97;;;31.77;39.63
68301;BME280;55146;47.468;18.806;2022-08-03T08:21:33;100206.28;;;31.96;37.53
68301;BME280;55146;47.468;18.806;2022-08-03T08:23:58;100203.41;;;31.99;36.86
68301;BME280;55146;47.468;18.806;2022-08-03T08:26:24;100208.78;;;31.87;37.15
68301;BME280;55146;47.468;18.806;2022-08-03T08:28:49;100209.47;;;32.08;39.43
68301;BME280;55146;47.468;18.806;2022-08-03T08:31:16;100208.12;;;32.24;36.83
68301;BME280;55146;47.468;18.806;2022-08-03T08:33:41;100203.50;;;32.44;37.85
68301;BME280;55146;47.468;18.806;2022-08-03T08:36:07;100203.16;;;32.83;37.51
68301;BME280;55146;47.468;18.806;2022-08-03T08:38:33;100204.13;;;32.69;35.92
68301;BME280;55146;47.468;18.806;2022-08-03T08:40:59;100198.75;;;32.75;34.63
68301;BME280;55146;47.468;18.806;2022-08-03T08:43:24;100204.69;;;32.91;36.72
68301;BME280;55146;47.468;18.806;2022-08-03T08:45:50;100199.31;;;32.97;36.52
68301;BME280;55146;47.468;18.806;2022-08-03T08:48:21;100197.59;;;33.06;37.24
68301;BME280;55146;47.468;18.806;2022-08-03T08:50:52;100198.03;;;33.05;35.18
68301;BME280;55146;47.468;18.806;2022-08-03T08:53:18;100200.06;;;32.63;36.49
68301;BME280;55146;47.468;18.806;2022-08-03T08:55:46;100199.59;;;33.09;36.75
68301;BME280;55146;47.468;18.806;2022-08-03T08:58:11;100196.03;;;33.02;36.58
68301;BME280;55146;47.468;18.806;2022-08-03T09:00:38;100195.09;;;33.12;35.28
68301;BME280;55146;47.468;18.806;2022-08-03T09:03:03;100199.81;;;33.29;35.06
68301;BME280;55146;47.468;18.806;2022-08-03T09:05:29;100194.19;;;33.22;34.47
68301;BME280;55146;47.468;18.806;2022-08-03T09:07:57;100192.94;;;33.26;35.80
68301;BME280;55146;47.468;18.806;2022-08-03T09:10:23;100193.69;;;33.27;33.72
68301;BME280;55146;47.468;18.806;2022-08-03T09:12:50;100190.06;;;33.26;34.08
68301;BME280;55146;47.468;18.806;2022-08-03T09:15:28;100187.34;;;33.46;35.82
68301;BME280;55146;47.468;18.806;2022-08-03T09:17:57;100186.31;;;33.63;34.34
68301;BME280;55146;47.468;18.806;2022-08-03T09:20:25;100187.81;;;33.75;33.40
68301;BME280;55146;47.468;18.806;2022-08-03T09:25:24;100189.25;;;33.26;35.46
68301;BME280;55146;47.468;18.806;2022-08-03T09:27:50;100179.66;;;32.27;36.12
68301;BME280;55146;47.468;18.806;2022-08-03T09:30:17;100183.53;;;30.94;38.42
68301;BME280;55146;47.468;18.806;2022-08-03T09:32:43;100186.03;;;30.68;39.51
68301;BME280;55146;47.468;18.806;2022-08-03T09:35:12;100178.59;;;31.23;40.36
68301;BME280;55146;47.468;18.806;2022-08-03T09:37:38;100175.50;;;31.73;39.40
68301;BME280;55146;47.468;18.806;2022-08-03T09:40:04;100174.31;;;32.33;37.33
68301;BME280;55146;47.468;18.806;2022-08-03T09:42:30;100176.19;;;32.91;37.45
68301;BME280;55146;47.468;18.806;2022-08-03T09:44:59;100170.03;;;33.30;36.06
68301;BME280;55146;47.468;18.806;2022-08-03T09:47:31;100166.37;;;33.60;36.72
68301;BME280;55146;47.468;18.806;2022-08-03T09:49:59;100168.03;;;33.88;35.51
68301;BME280;55146;47.468;18.806;2022-08-03T09:52:37;100173.75;;;33.88;36.85
68301;BME280;55146;47.468;18.806;2022-08-03T09:55:10;100160.56;;;33.67;35.26
68301;BME280;55146;47.468;18.806;2022-08-03T09:57:36;100155.34;;;33.62;34.94
68301;BME280;55146;47.468;18.806;2022-08-03T10:00:07;100150.31;;;33.73;33.37
68301;BME280;55146;47.468;18.806;2022-08-03T10:02:35;100155.63;;;33.41;33.05
68301;BME280;55146;47.468;18.806;2022-08-03T10:05:02;100147.88;;;32.73;33.28
68301;BME280;55146;47.468;18.806;2022-08-03T10:07:28;100149.66;;;32.16;34.91
68301;BME280;55146;47.468;18.806;2022-08-03T10:10:00;100148.34;;;31.65;36.39
68301;BME280;55146;47.468;18.806;2022-08-03T10:12:27;100151.75;;;31.35;35.92
68301;BME280;55146;47.468;18.806;2022-08-03T10:14:53;100144.06;;;31.25;36.26
68301;BME280;55146;47.468;18.806;2022-08-03T10:17:19;100144.56;;;31.06;34.29
68301;BME280;55146;47.468;18.806;2022-08-03T10:19:46;100142.91;;;31.12;37.28
68301;BME280;55146;47.468;18.806;2022-08-03T10:22:15;100142.63;;;31.72;35.25
68301;BME280;55146;47.468;18.806;2022-08-03T10:24:48;100138.25;;;32.12;37.06
68301;BME280;55146;47.468;18.806;2022-08-03T10:27:17;100136.13;;;32.23;35.97
68301;BME280;55146;47.468;18.806;2022-08-03T10:29:50;100132.75;;;31.87;36.33
68301;BME280;55146;47.468;18.806;2022-08-03T10:32:27;100138.16;;;31.67;38.16
68301;BME280;55146;47.468;18.806;2022-08-03T10:34:58;100137.47;;;31.46;37.88
68301;BME280;55146;47.468;18.806;2022-08-03T10:37:28;100132.34;;;31.16;35.39
68301;BME280;55146;47.468;18.806;2022-08-03T10:39:54;100129.13;;;31.07;36.32
68301;BME280;55146;47.468;18.806;2022-08-03T10:42:23;100126.28;;;31.00;40.25
68301;BME280;55146;47.468;18.806;2022-08-03T10:44:55;100134.41;;;30.94;39.87
68301;BME280;55146;47.468;18.806;2022-08-03T10:47:24;100132.47;;;30.66;40.21
68301;BME280;55146;47.468;18.806;2022-08-03T10:49:50;100123.56;;;30.64;35.86
68301;BME280;55146;47.468;18.806;2022-08-03T10:52:16;100125.59;;;30.49;37.96
68301;BME280;55146;47.468;18.806;2022-08-03T10:54:43;100112.66;;;30.17;39.44
68301;BME280;55146;47.468;18.806;2022-08-03T11:00:07;100120.31;;;29.81;38.53
68301;BME280;55146;47.468;18.806;2022-08-03T11:03:05;100112.66;;;29.95;38.63
68301;BME280;55146;47.468;18.806;2022-08-03T11:05:38;100114.25;;;29.89;41.95
68301;BME280;55146;47.468;18.806;2022-08-03T11:08:26;100107.75;;;29.78;40.69
68301;BME280;55146;47.468;18.806;2022-08-03T11:10:57;100114.22;;;29.64;42.73
68301;BME280;55146;47.468;18.806;2022-08-03T11:13:24;100108.56;;;29.71;39.73
68301;BME280;55146;47.468;18.806;2022-08-03T11:15:54;100104.06;;;29.53;38.78
68301;BME280;55146;47.468;18.806;2022-08-03T11:18:20;100100.84;;;29.65;39.28
68301;BME280;55146;47.468;18.806;2022-08-03T11:23:18;100094.78;;;29.81;39.38
68301;BME280;55146;47.468;18.806;2022-08-03T11:26:18;100093.16;;;29.76;41.92
68301;BME280;55146;47.468;18.806;2022-08-03T11:28:47;100098.41;;;29.70;43.60
68301;BME280;55146;47.468;18.806;2022-08-03T11:34:06;100094.78;;;30.12;39.37
68301;BME280;55146;47.468;18.806;2022-08-03T11:39:41;100089.47;;;30.57;37.76
68301;BME280;55146;47.468;18.806;2022-08-03T11:44:53;100075.91;;;31.14;36.93
68301;BME280;55146;47.468;18.806;2022-08-03T11:47:21;100081.37;;;31.46;36.67
68301;BME280;55146;47.468;18.806;2022-08-03T11:49:47;100085.88;;;32.02;37.15
68301;BME280;55146;47.468;18.806;2022-08-03T11:52:14;100080.66;;;32.38;34.83
68301;BME280;55146;47.468;18.806;2022-08-03T11:54:40;100078.97;;;32.44;35.13
68301;BME280;55146;47.468;18.806;2022-08-03T11:57:06;100082.66;;;32.41;33.48
68301;BME280;55146;47.468;18.806;2022-08-03T11:59:32;100073.16;;;32.55;33.43
68301;BME280;55146;47.468;18.806;2022-08-03T12:02:08;100078.84;;;32.92;33.04
68301;BME280;55146;47.468;18.806;2022-08-03T12:04:51;100071.72;;;33.08;35.44
68301;BME280;55146;47.468;18.806;2022-08-03T12:07:17;100070.66;;;32.95;32.92
68301;BME280;55146;47.468;18.806;2022-08-03T12:09:43;100070.63;;;33.28;33.80
68301;BME280;55146;47.468;18.806;2022-08-03T12:12:26;100068.63;;;33.52;31.42
68301;BME280;55146;47.468;18.806;2022-08-03T12:14:51;100069.34;;;33.60;32.14
68301;BME280;55146;47.468;18.806;2022-08-03T12:17:17;100061.69;;;33.53;29.33
68301;BME280;55146;47.468;18.806;2022-08-03T12:19:42;100064.13;;;33.55;29.50
68301;BME280;55146;47.468;18.806;2022-08-03T12:22:08;100058.13;;;33.76;29.70
68301;BME280;55146;47.468;18.806;2022-08-03T12:24:43;100049.59;;;33.72;30.69
68301;BME280;55146;47.468;18.806;2022-08-03T12:27:09;100053.38;;;33.89;26.71
68301;BME280;55146;47.468;18.806;2022-08-03T12:29:34;100052.19;;;33.63;30.69
68301;BME280;55146;47.468;18.806;2022-08-03T12:32:00;100046.00;;;33.65;29.28
68301;BME280;55146;47.468;18.806;2022-08-03T12:34:45;100042.16;;;34.02;31.17
68301;BME280;55146;47.468;18.806;2022-08-03T12:37:11;100041.97;;;34.13;28.11
68301;BME280;55146;47.468;18.806;2022-08-03T12:39:37;100038.81;;;34.30;28.27
68301;BME280;55146;47.468;18.806;2022-08-03T12:42:02;100029.06;;;34.28;27.57
68301;BME280;55146;47.468;18.806;2022-08-03T12:44:30;100029.84;;;34.28;30.46
68301;BME280;55146;47.468;18.806;2022-08-03T12:46:57;100035.06;;;34.10;30.67
68301;BME280;55146;47.468;18.806;2022-08-03T12:49:23;100024.22;;;34.25;29.31
68301;BME280;55146;47.468;18.806;2022-08-03T12:54:26;100030.91;;;33.68;28.04
68301;BME280;55146;47.468;18.806;2022-08-03T12:57:05;100028.03;;;33.14;29.04
68301;BME280;55146;47.468;18.806;2022-08-03T12:59:44;100032.06;;;32.86;28.91
68301;BME280;55146;47.468;18.806;2022-08-03T13:02:25;100028.03;;;32.50;28.74
68301;BME280;55146;47.468;18.806;2022-08-03T13:04:52;100024.72;;;32.18;28.67
68301;BME280;55146;47.468;18.806;2022-08-03T13:07:19;100025.47;;;31.81;31.80
68301;BME280;55146;47.468;18.806;2022-08-03T13:09:49;100021.22;;;31.51;32.47
68301;BME280;55146;47.468;18.806;2022-08-03T13:12:17;100019.47;;;31.06;34.04